sensor_id;sensor_type;location;lat;lon;timestamp;P1;durP1;ratioP1;P2;durP2;ratioP2
8532;SDS011;4304;53.876;10.662;2022-08-03T00:01:01;3.17;;;1.60;;
8532;SDS011;4304;53.876;10.662;2022-08-03T00:03:27;2.45;;;1.58;;
8532;SDS011;4304;53.876;10.662;2022-08-03T00:05:52;1.95;;;1.33;;
8532;SDS011;4304;53.876;10.662;2022-08-03T00:08:18;4.65;;;1.55;;
8532;SDS011;4304;53.876;10.662;2022-08-03T00:10:43;5.25;;;1.70;;
8532;SDS011;4304;53.876;10.662;2022-08-03T00:13:08;3.05;;;1.48;;
8532;SDS011;4304;53.876;10.662;2022-08-03T00:15:36;2.83;;;1.40;;
8532;SDS011;4304;53.876;10.662;2022-08-03T00:18:02;3.45;;;1.45;;
8532;SDS011;4304;53.876;10.662;2022-08-03T00:20:27;3.70;;;1.70;;
8532;SDS011;4304;53.876;10.662;2022-08-03T00:22:53;1.58;;;1.40;;
8532;SDS011;4304;53.876;10.662;2022-08-03T00:25:18;1.90;;;1.42;;
8532;SDS011;4304;53.876;10.662;2022-08-03T00:27:43;2.72;;;1.40;;
8532;SDS011;4304;53.876;10.662;2022-08-03T00:30:09;3.05;;;1.80;;
8532;SDS011;4304;53.876;10.662;2022-08-03T00:32:35;5.63;;;1.60;;
8532;SDS011;4304;53.876;10.662;2022-08-03T00:35:00;3.17;;;1.50;;
8532;SDS011;4304;53.876;10.662;2022-08-03T00:37:26;2.15;;;1.38;;
8532;SDS011;4304;53.876;10.662;2022-08-03T00:39:51;2.72;;;1.80;;
8532;SDS011;4304;53.876;10.662;2022-08-03T00:42:17;4.00;;;1.67;;
8532;SDS011;4304;53.876;10.662;2022-08-03T00:44:42;4.25;;;1.58;;
8532;SDS011;4304;53.876;10.662;2022-08-03T00:47:09;2.53;;;1.67;;
8532;SDS011;4304;53.876;10.662;2022-08-03T00:49:35;3.38;;;1.50;;
8532;SDS011;4304;53.876;10.662;2022-08-03T00:52:02;4.00;;;1.60;;
8532;SDS011;4304;53.876;10.662;2022-08-03T00:54:28;2.45;;;1.80;;
8532;SDS011;4304;53.876;10.662;2022-08-03T00:56:54;2.25;;;1.50;;
8532;SDS011;4304;53.876;10.662;2022-08-03T00:59:19;3.55;;;1.55;;
8532;SDS011;4304;53.876;10.662;2022-08-03T01:01:45;1.88;;;1.30;;
8532;SDS011;4304;53.876;10.662;2022-08-03T01:04:11;1.85;;;1.40;;
8532;SDS011;4304;53.876;10.662;2022-08-03T01:09:08;3.85;;;1.50;;
8532;SDS011;4304;53.876;10.662;2022-08-03T01:11:45;4.22;;;1.80;;
8532;SDS011;4304;53.876;10.662;2022-08-03T01:14:31;2.45;;;1.48;;
8532;SDS011;4304;53.876;10.662;2022-08-03T01:17:11;2.92;;;1.60;;
8532;SDS011;4304;53.876;10.662;2022-08-03T01:25:02;3.22;;;1.77;;
8532;SDS011;4304;53.876;10.662;2022-08-03T01:30:34;2.60;;;1.73;;
8532;SDS011;4304;53.876;10.662;2022-08-03T01:33:03;3.47;;;1.88;;
8532;SDS011;4304;53.876;10.662;2022-08-03T01:35:32;2.80;;;1.77;;
8532;SDS011;4304;53.876;10.662;2022-08-03T01:38:22;1.80;;;1.63;;
8532;SDS011;4304;53.876;10.662;2022-08-03T01:40:51;2.28;;;1.70;;
8532;SDS011;4304;53.876;10.662;2022-08-03T01:43:18;3.47;;;1.77;;
8532;SDS011;4304;53.876;10.662;2022-08-03T01:45:47;3.30;;;1.60;;
8532;SDS011;4304;53.876;10.662;2022-08-03T01:48:14;3.03;;;1.90;;
8532;SDS011;4304;53.876;10.662;2022-08-03T01:50:41;2.92;;;1.63;;
8532;SDS011;4304;53.876;10.662;2022-08-03T01:53:09;2.47;;;1.60;;
8532;SDS011;4304;53.876;10.662;2022-08-03T01:55:38;3.53;;;1.90;;
8532;SDS011;4304;53.876;10.662;2022-08-03T01:58:04;3.70;;;2.17;;
8532;SDS011;4304;53.876;10.662;2022-08-03T02:00:32;4.63;;;2.15;;
8532;SDS011;4304;53.876;10.662;2022-08-03T02:03:00;2.85;;;1.90;;
8532;SDS011;4304;53.876;10.662;2022-08-03T02:05:28;3.17;;;1.70;;
8532;SDS011;4304;53.876;10.662;2022-08-03T02:07:55;3.30;;;2.03;;
8532;SDS011;4304;53.876;10.662;2022-08-03T02:10:22;3.28;;;1.90;;
8532;SDS011;4304;53.876;10.662;2022-08-03T02:12:48;2.45;;;1.90;;
8532;SDS011;4304;53.876;10.662;2022-08-03T02:15:14;2.60;;;1.80;;
8532;SDS011;4304;53.876;10.662;2022-08-03T02:17:40;3.35;;;2.20;;
8532;SDS011;4304;53.876;10.662;2022-08-03T02:20:08;5.03;;;1.95;;
8532;SDS011;4304;53.876;10.662;2022-08-03T02:22:37;2.67;;;2.05;;
8532;SDS011;4304;53.876;10.662;2022-08-03T02:25:05;2.03;;;1.70;;
8532;SDS011;4304;53.876;10.662;2022-08-03T02:27:32;2.55;;;1.92;;
8532;SDS011;4304;53.876;10.662;2022-08-03T02:30:04;1.98;;;1.77;;
8532;SDS011;4304;53.876;10.662;2022-08-03T02:32:36;4.15;;;2.35;;
8532;SDS011;4304;53.876;10.662;2022-08-03T02:35:05;1.95;;;1.75;;
8532;SDS011;4304;53.876;10.662;2022-08-03T02:37:37;2.97;;;2.08;;
8532;SDS011;4304;53.876;10.662;2022-08-03T02:40:07;2.83;;;1.95;;
8532;SDS011;4304;53.876;10.662;2022-08-03T02:42:34;2.38;;;1.83;;
8532;SDS011;4304;53.876;10.662;2022-08-03T02:45:03;2.70;;;1.90;;
8532;SDS011;4304;53.876;10.662;2022-08-03T02:47:31;2.25;;;2.05;;
8532;SDS011;4304;53.876;10.662;2022-08-03T02:50:00;3.88;;;2.15;;
8532;SDS011;4304;53.876;10.662;2022-08-03T02:52:27;3.10;;;2.58;;
8532;SDS011;4304;53.876;10.662;2022-08-03T02:54:55;5.78;;;2.10;;
8532;SDS011;4304;53.876;10.662;2022-08-03T02:57:24;2.67;;;2.00;;
8532;SDS011;4304;53.876;10.662;2022-08-03T02:59:51;2.30;;;2.03;;
8532;SDS011;4304;53.876;10.662;2022-08-03T03:02:17;4.70;;;2.20;;
8532;SDS011;4304;53.876;10.662;2022-08-03T03:04:44;6.15;;;2.40;;
8532;SDS011;4304;53.876;10.662;2022-08-03T03:07:13;2.92;;;2.50;;
8532;SDS011;4304;53.876;10.662;2022-08-03T03:09:39;4.30;;;2.45;;
8532;SDS011;4304;53.876;10.662;2022-08-03T03:12:06;2.80;;;2.30;;
8532;SDS011;4304;53.876;10.662;2022-08-03T03:14:33;4.65;;;2.30;;
8532;SDS011;4304;53.876;10.662;2022-08-03T03:16:58;2.70;;;2.22;;
8532;SDS011;4304;53.876;10.662;2022-08-03T03:19:26;3.05;;;2.55;;
8532;SDS011;4304;53.876;10.662;2022-08-03T03:21:52;4.22;;;2.33;;
8532;SDS011;4304;53.876;10.662;2022-08-03T03:24:19;3.00;;;2.53;;
8532;SDS011;4304;53.876;10.662;2022-08-03T03:26:45;4.18;;;2.72;;
8532;SDS011;4304;53.876;10.662;2022-08-03T03:29:12;4.47;;;2.75;;
8532;SDS011;4304;53.876;10.662;2022-08-03T03:31:39;4.90;;;2.80;;
8532;SDS011;4304;53.876;10.662;2022-08-03T03:34:04;4.53;;;2.70;;
8532;SDS011;4304;53.876;10.662;2022-08-03T03:36:30;3.72;;;2.83;;
8532;SDS011;4304;53.876;10.662;2022-08-03T03:38:55;4.70;;;2.38;;
8532;SDS011;4304;53.876;10.662;2022-08-03T03:41:21;2.70;;;2.40;;
8532;SDS011;4304;53.876;10.662;2022-08-03T03:43:49;2.88;;;2.58;;
8532;SDS011;4304;53.876;10.662;2022-08-03T03:46:15;2.72;;;2.05;;
8532;SDS011;4304;53.876;10.662;2022-08-03T03:48:40;3.20;;;2.78;;
8532;SDS011;4304;53.876;10.662;2022-08-03T03:51:06;3.10;;;2.60;;
8532;SDS011;4304;53.876;10.662;2022-08-03T03:53:32;3.08;;;2.42;;
8532;SDS011;4304;53.876;10.662;2022-08-03T03:55:57;3.60;;;2.45;;
8532;SDS011;4304;53.876;10.662;2022-08-03T03:58:22;3.30;;;2.38;;
8532;SDS011;4304;53.876;10.662;2022-08-03T04:00:48;4.43;;;2.53;;
8532;SDS011;4304;53.876;10.662;2022-08-03T04:03:13;3.40;;;2.40;;
8532;SDS011;4304;53.876;10.662;2022-08-03T04:05:39;4.30;;;2.95;;
8532;SDS011;4304;53.876;10.662;2022-08-03T04:08:23;3.40;;;2.58;;
8532;SDS011;4304;53.876;10.662;2022-08-03T04:13:51;3.55;;;2.38;;
8532;SDS011;4304;53.876;10.662;2022-08-03T04:16:30;4.13;;;2.65;;
8532;SDS011;4304;53.876;10.662;2022-08-03T04:19:03;4.57;;;2.60;;
8532;SDS011;4304;53.876;10.662;2022-08-03T04:21:34;3.63;;;2.80;;
8532;SDS011;4304;53.876;10.662;2022-08-03T04:24:07;3.10;;;2.80;;
8532;SDS011;4304;53.876;10.662;2022-08-03T04:26:36;5.03;;;3.22;;
8532;SDS011;4304;53.876;10.662;2022-08-03T04:29:05;6.28;;;2.80;;
8532;SDS011;4304;53.876;10.662;2022-08-03T04:31:34;3.95;;;2.97;;
8532;SDS011;4304;53.876;10.662;2022-08-03T04:34:05;2.78;;;2.58;;
8532;SDS011;4304;53.876;10.662;2022-08-03T04:36:32;5.15;;;2.92;;
8532;SDS011;4304;53.876;10.662;2022-08-03T04:39:03;5.78;;;3.17;;
8532;SDS011;4304;53.876;10.662;2022-08-03T04:41:32;4.07;;;2.90;;
8532;SDS011;4304;53.876;10.662;2022-08-03T04:43:59;3.25;;;2.83;;
8532;SDS011;4304;53.876;10.662;2022-08-03T04:46:26;4.57;;;2.80;;
8532;SDS011;4304;53.876;10.662;2022-08-03T04:48:55;3.58;;;2.75;;
8532;SDS011;4304;53.876;10.662;2022-08-03T04:51:22;3.42;;;2.80;;
8532;SDS011;4304;53.876;10.662;2022-08-03T04:53:47;4.25;;;2.90;;
8532;SDS011;4304;53.876;10.662;2022-08-03T04:56:13;4.38;;;2.83;;
8532;SDS011;4304;53.876;10.662;2022-08-03T04:58:38;4.78;;;2.50;;
8532;SDS011;4304;53.876;10.662;2022-08-03T05:01:04;3.17;;;2.72;;
8532;SDS011;4304;53.876;10.662;2022-08-03T05:03:29;3.53;;;2.50;;
8532;SDS011;4304;53.876;10.662;2022-08-03T05:05:55;3.10;;;2.58;;
8532;SDS011;4304;53.876;10.662;2022-08-03T05:08:21;3.55;;;2.80;;
8532;SDS011;4304;53.876;10.662;2022-08-03T05:10:47;3.35;;;2.45;;
8532;SDS011;4304;53.876;10.662;2022-08-03T05:13:12;2.63;;;2.42;;
8532;SDS011;4304;53.876;10.662;2022-08-03T05:15:38;4.40;;;2.42;;
8532;SDS011;4304;53.876;10.662;2022-08-03T05:18:04;3.92;;;2.70;;
8532;SDS011;4304;53.876;10.662;2022-08-03T05:20:29;4.20;;;3.00;;
8532;SDS011;4304;53.876;10.662;2022-08-03T05:22:55;3.10;;;2.67;;
8532;SDS011;4304;53.876;10.662;2022-08-03T05:25:21;4.28;;;2.92;;
8532;SDS011;4304;53.876;10.662;2022-08-03T05:27:47;3.67;;;2.53;;
8532;SDS011;4304;53.876;10.662;2022-08-03T05:30:12;3.17;;;2.40;;
8532;SDS011;4304;53.876;10.662;2022-08-03T05:32:38;4.15;;;2.70;;
8532;SDS011;4304;53.876;10.662;2022-08-03T05:35:03;3.28;;;2.60;;
8532;SDS011;4304;53.876;10.662;2022-08-03T05:37:29;3.97;;;3.03;;
8532;SDS011;4304;53.876;10.662;2022-08-03T05:39:54;4.00;;;2.90;;
8532;SDS011;4304;53.876;10.662;2022-08-03T05:42:20;3.55;;;2.10;;
8532;SDS011;4304;53.876;10.662;2022-08-03T05:44:45;4.93;;;2.90;;
8532;SDS011;4304;53.876;10.662;2022-08-03T05:47:11;2.90;;;2.47;;
8532;SDS011;4304;53.876;10.662;2022-08-03T05:49:37;6.15;;;2.53;;
8532;SDS011;4304;53.876;10.662;2022-08-03T05:52:03;7.07;;;2.65;;
8532;SDS011;4304;53.876;10.662;2022-08-03T05:54:28;4.47;;;2.33;;
8532;SDS011;4304;53.876;10.662;2022-08-03T05:56:53;2.90;;;2.42;;
8532;SDS011;4304;53.876;10.662;2022-08-03T05:59:19;2.42;;;2.22;;
8532;SDS011;4304;53.876;10.662;2022-08-03T06:01:45;2.85;;;2.22;;
8532;SDS011;4304;53.876;10.662;2022-08-03T06:04:11;3.70;;;2.88;;
8532;SDS011;4304;53.876;10.662;2022-08-03T06:06:36;6.20;;;2.58;;
8532;SDS011;4304;53.876;10.662;2022-08-03T06:09:01;3.58;;;2.47;;
8532;SDS011;4304;53.876;10.662;2022-08-03T06:11:27;2.92;;;2.50;;
8532;SDS011;4304;53.876;10.662;2022-08-03T06:13:52;3.67;;;2.35;;
8532;SDS011;4304;53.876;10.662;2022-08-03T06:16:18;2.90;;;2.38;;
8532;SDS011;4304;53.876;10.662;2022-08-03T06:18:43;9.32;;;3.05;;
8532;SDS011;4304;53.876;10.662;2022-08-03T06:21:09;3.10;;;2.38;;
8532;SDS011;4304;53.876;10.662;2022-08-03T06:23:35;3.95;;;2.63;;
8532;SDS011;4304;53.876;10.662;2022-08-03T06:26:00;2.80;;;2.50;;
8532;SDS011;4304;53.876;10.662;2022-08-03T06:28:26;4.53;;;2.50;;
8532;SDS011;4304;53.876;10.662;2022-08-03T06:30:52;2.38;;;2.03;;
8532;SDS011;4304;53.876;10.662;2022-08-03T06:33:17;2.90;;;2.22;;
8532;SDS011;4304;53.876;10.662;2022-08-03T06:35:43;2.90;;;2.20;;
8532;SDS011;4304;53.876;10.662;2022-08-03T06:38:08;3.90;;;2.33;;
8532;SDS011;4304;53.876;10.662;2022-08-03T06:40:34;2.88;;;2.50;;
8532;SDS011;4304;53.876;10.662;2022-08-03T06:43:04;3.58;;;2.33;;
8532;SDS011;4304;53.876;10.662;2022-08-03T06:45:30;3.28;;;2.22;;
8532;SDS011;4304;53.876;10.662;2022-08-03T06:48:03;3.65;;;1.95;;
8532;SDS011;4304;53.876;10.662;2022-08-03T06:50:29;5.57;;;2.40;;
8532;SDS011;4304;53.876;10.662;2022-08-03T06:52:55;4.13;;;2.17;;
8532;SDS011;4304;53.876;10.662;2022-08-03T06:55:21;3.17;;;2.05;;
8532;SDS011;4304;53.876;10.662;2022-08-03T06:57:46;4.28;;;2.22;;
8532;SDS011;4304;53.876;10.662;2022-08-03T07:00:12;3.30;;;2.30;;
8532;SDS011;4304;53.876;10.662;2022-08-03T07:02:38;2.83;;;2.10;;
8532;SDS011;4304;53.876;10.662;2022-08-03T07:05:04;4.30;;;2.35;;
8532;SDS011;4304;53.876;10.662;2022-08-03T07:07:30;2.63;;;1.92;;
8532;SDS011;4304;53.876;10.662;2022-08-03T07:09:56;2.80;;;1.90;;
8532;SDS011;4304;53.876;10.662;2022-08-03T07:12:21;3.25;;;2.05;;
8532;SDS011;4304;53.876;10.662;2022-08-03T07:14:46;2.88;;;1.90;;
8532;SDS011;4304;53.876;10.662;2022-08-03T07:17:12;2.50;;;2.05;;
8532;SDS011;4304;53.876;10.662;2022-08-03T07:19:37;3.45;;;1.90;;
8532;SDS011;4304;53.876;10.662;2022-08-03T07:22:04;2.90;;;2.00;;
8532;SDS011;4304;53.876;10.662;2022-08-03T07:24:30;2.53;;;2.00;;
8532;SDS011;4304;53.876;10.662;2022-08-03T07:26:55;1.90;;;1.67;;
8532;SDS011;4304;53.876;10.662;2022-08-03T07:29:20;3.75;;;1.90;;
8532;SDS011;4304;53.876;10.662;2022-08-03T07:31:46;3.95;;;2.00;;
8532;SDS011;4304;53.876;10.662;2022-08-03T07:34:12;1.70;;;1.60;;
8532;SDS011;4304;53.876;10.662;2022-08-03T07:36:38;3.17;;;1.80;;
8532;SDS011;4304;53.876;10.662;2022-08-03T07:39:03;5.90;;;2.17;;
8532;SDS011;4304;53.876;10.662;2022-08-03T07:41:29;3.28;;;2.25;;
8532;SDS011;4304;53.876;10.662;2022-08-03T07:43:55;1.95;;;1.60;;
8532;SDS011;4304;53.876;10.662;2022-08-03T07:46:21;2.30;;;1.65;;
8532;SDS011;4304;53.876;10.662;2022-08-03T07:48:46;2.13;;;1.80;;
8532;SDS011;4304;53.876;10.662;2022-08-03T07:51:12;2.83;;;1.65;;
8532;SDS011;4304;53.876;10.662;2022-08-03T07:53:37;3.08;;;1.80;;
8532;SDS011;4304;53.876;10.662;2022-08-03T07:56:02;4.07;;;1.70;;
8532;SDS011;4304;53.876;10.662;2022-08-03T07:58:28;2.63;;;1.50;;
8532;SDS011;4304;53.876;10.662;2022-08-03T08:00:53;1.63;;;1.50;;
8532;SDS011;4304;53.876;10.662;2022-08-03T08:03:19;4.28;;;2.03;;
8532;SDS011;4304;53.876;10.662;2022-08-03T08:05:47;1.50;;;1.40;;
8532;SDS011;4304;53.876;10.662;2022-08-03T08:08:12;1.80;;;1.52;;
8532;SDS011;4304;53.876;10.662;2022-08-03T08:10:38;2.65;;;1.83;;
8532;SDS011;4304;53.876;10.662;2022-08-03T08:13:04;1.30;;;1.20;;
8532;SDS011;4304;53.876;10.662;2022-08-03T08:15:29;3.42;;;1.55;;
8532;SDS011;4304;53.876;10.662;2022-08-03T08:17:56;1.63;;;1.38;;
8532;SDS011;4304;53.876;10.662;2022-08-03T08:20:23;2.30;;;1.55;;
8532;SDS011;4304;53.876;10.662;2022-08-03T08:22:50;2.35;;;1.48;;
8532;SDS011;4304;53.876;10.662;2022-08-03T08:25:15;3.53;;;1.55;;
8532;SDS011;4304;53.876;10.662;2022-08-03T08:27:45;2.80;;;1.60;;
8532;SDS011;4304;53.876;10.662;2022-08-03T08:30:12;2.22;;;1.58;;
8532;SDS011;4304;53.876;10.662;2022-08-03T08:32:39;3.40;;;1.50;;
8532;SDS011;4304;53.876;10.662;2022-08-03T08:35:06;3.08;;;1.70;;
8532;SDS011;4304;53.876;10.662;2022-08-03T08:37:32;2.47;;;1.50;;
8532;SDS011;4304;53.876;10.662;2022-08-03T08:39:58;3.22;;;1.60;;
8532;SDS011;4304;53.876;10.662;2022-08-03T08:42:24;3.38;;;1.63;;
8532;SDS011;4304;53.876;10.662;2022-08-03T08:44:50;6.03;;;1.65;;
8532;SDS011;4304;53.876;10.662;2022-08-03T08:47:17;1.83;;;1.70;;
8532;SDS011;4304;53.876;10.662;2022-08-03T08:49:43;2.28;;;1.48;;
8532;SDS011;4304;53.876;10.662;2022-08-03T08:52:10;3.25;;;1.40;;
8532;SDS011;4304;53.876;10.662;2022-08-03T08:54:38;2.38;;;1.23;;
8532;SDS011;4304;53.876;10.662;2022-08-03T08:57:07;1.73;;;1.42;;
8532;SDS011;4304;53.876;10.662;2022-08-03T08:59:34;3.22;;;1.40;;
8532;SDS011;4304;53.876;10.662;2022-08-03T09:02:00;3.03;;;1.48;;
8532;SDS011;4304;53.876;10.662;2022-08-03T09:04:26;1.95;;;1.50;;
8532;SDS011;4304;53.876;10.662;2022-08-03T09:06:52;2.75;;;1.60;;
8532;SDS011;4304;53.876;10.662;2022-08-03T09:09:18;5.10;;;1.73;;
8532;SDS011;4304;53.876;10.662;2022-08-03T09:11:43;2.13;;;1.35;;
8532;SDS011;4304;53.876;10.662;2022-08-03T09:14:09;1.73;;;1.25;;
8532;SDS011;4304;53.876;10.662;2022-08-03T09:16:35;4.50;;;1.48;;
8532;SDS011;4304;53.876;10.662;2022-08-03T09:19:19;5.82;;;1.30;;
8532;SDS011;4304;53.876;10.662;2022-08-03T09:21:45;4.15;;;1.42;;
8532;SDS011;4304;53.876;10.662;2022-08-03T09:24:10;2.83;;;1.48;;
8532;SDS011;4304;53.876;10.662;2022-08-03T09:26:36;3.08;;;1.27;;
8532;SDS011;4304;53.876;10.662;2022-08-03T09:29:03;3.22;;;1.48;;
8532;SDS011;4304;53.876;10.662;2022-08-03T09:31:36;3.53;;;1.40;;
8532;SDS011;4304;53.876;10.662;2022-08-03T09:34:04;3.80;;;1.73;;
8532;SDS011;4304;53.876;10.662;2022-08-03T09:39:02;2.67;;;1.25;;
8532;SDS011;4304;53.876;10.662;2022-08-03T09:44:47;2.70;;;1.33;;
8532;SDS011;4304;53.876;10.662;2022-08-03T09:47:14;5.70;;;1.58;;
8532;SDS011;4304;53.876;10.662;2022-08-03T09:49:41;2.25;;;1.30;;
8532;SDS011;4304;53.876;10.662;2022-08-03T09:52:20;1.90;;;1.50;;
8532;SDS011;4304;53.876;10.662;2022-08-03T09:54:50;9.68;;;1.88;;
8532;SDS011;4304;53.876;10.662;2022-08-03T09:57:23;4.38;;;1.45;;
8532;SDS011;4304;53.876;10.662;2022-08-03T09:59:50;5.20;;;1.80;;
8532;SDS011;4304;53.876;10.662;2022-08-03T10:02:20;1.92;;;1.45;;
8532;SDS011;4304;53.876;10.662;2022-08-03T10:04:47;2.08;;;1.65;;
8532;SDS011;4304;53.876;10.662;2022-08-03T10:07:14;9.05;;;1.65;;
8532;SDS011;4304;53.876;10.662;2022-08-03T10:09:51;3.20;;;1.55;;
8532;SDS011;4304;53.876;10.662;2022-08-03T10:12:26;6.05;;;2.00;;
8532;SDS011;4304;53.876;10.662;2022-08-03T10:14:53;2.05;;;1.48;;
8532;SDS011;4304;53.876;10.662;2022-08-03T10:17:22;3.80;;;1.48;;
8532;SDS011;4304;53.876;10.662;2022-08-03T10:19:51;6.43;;;1.70;;
8532;SDS011;4304;53.876;10.662;2022-08-03T10:22:18;2.15;;;1.60;;
8532;SDS011;4304;53.876;10.662;2022-08-03T10:27:38;1.55;;;1.45;;
8532;SDS011;4304;53.876;10.662;2022-08-03T10:30:08;3.00;;;1.50;;
8532;SDS011;4304;53.876;10.662;2022-08-03T10:35:06;4.82;;;1.48;;
8532;SDS011;4304;53.876;10.662;2022-08-03T10:37:44;4.28;;;1.42;;
8532;SDS011;4304;53.876;10.662;2022-08-03T10:40:32;5.90;;;1.60;;
8532;SDS011;4304;53.876;10.662;2022-08-03T10:43:04;1.83;;;1.50;;
8532;SDS011;4304;53.876;10.662;2022-08-03T10:45:35;4.88;;;1.35;;
8532;SDS011;4304;53.876;10.662;2022-08-03T10:48:08;3.35;;;1.50;;
8532;SDS011;4304;53.876;10.662;2022-08-03T10:50:34;2.78;;;1.60;;
8532;SDS011;4304;53.876;10.662;2022-08-03T10:53:00;5.18;;;1.58;;
8532;SDS011;4304;53.876;10.662;2022-08-03T10:55:39;2.95;;;1.50;;
8532;SDS011;4304;53.876;10.662;2022-08-03T11:01:06;2.20;;;1.23;;
8532;SDS011;4304;53.876;10.662;2022-08-03T11:03:33;1.15;;;1.05;;
8532;SDS011;4304;53.876;10.662;2022-08-03T11:09:13;5.35;;;1.58;;
8532;SDS011;4304;53.876;10.662;2022-08-03T11:11:43;4.13;;;1.58;;
8532;SDS011;4304;53.876;10.662;2022-08-03T11:14:11;2.35;;;1.30;;
8532;SDS011;4304;53.876;10.662;2022-08-03T11:16:45;2.53;;;1.20;;
8532;SDS011;4304;53.876;10.662;2022-08-03T11:19:18;1.77;;;1.40;;
8532;SDS011;4304;53.876;10.662;2022-08-03T11:38:03;3.42;;;1.40;;
8532;SDS011;4304;53.876;10.662;2022-08-03T11:40:52;2.15;;;1.50;;
8532;SDS011;4304;53.876;10.662;2022-08-03T11:46:06;2.03;;;1.30;;
8532;SDS011;4304;53.876;10.662;2022-08-03T11:48:46;3.78;;;1.52;;
8532;SDS011;4304;53.876;10.662;2022-08-03T11:51:23;7.72;;;1.45;;
8532;SDS011;4304;53.876;10.662;2022-08-03T11:54:04;2.85;;;1.30;;
8532;SDS011;4304;53.876;10.662;2022-08-03T11:56:45;2.90;;;1.55;;
8532;SDS011;4304;53.876;10.662;2022-08-03T11:59:20;4.07;;;1.48;;
8532;SDS011;4304;53.876;10.662;2022-08-03T12:07:44;2.55;;;1.30;;
8532;SDS011;4304;53.876;10.662;2022-08-03T12:10:30;3.55;;;1.50;;
8532;SDS011;4304;53.876;10.662;2022-08-03T12:13:01;5.68;;;1.60;;
8532;SDS011;4304;53.876;10.662;2022-08-03T12:18:23;5.18;;;1.77;;
8532;SDS011;4304;53.876;10.662;2022-08-03T12:21:09;4.28;;;1.40;;
8532;SDS011;4304;53.876;10.662;2022-08-03T12:23:45;2.88;;;1.65;;
8532;SDS011;4304;53.876;10.662;2022-08-03T12:26:13;2.65;;;1.27;;
8532;SDS011;4304;53.876;10.662;2022-08-03T12:28:47;3.58;;;1.45;;
8532;SDS011;4304;53.876;10.662;2022-08-03T12:31:21;3.40;;;1.20;;
8532;SDS011;4304;53.876;10.662;2022-08-03T12:33:58;5.43;;;1.40;;
8532;SDS011;4304;53.876;10.662;2022-08-03T12:36:31;3.97;;;1.40;;
8532;SDS011;4304;53.876;10.662;2022-08-03T12:39:25;4.90;;;1.30;;
8532;SDS011;4304;53.876;10.662;2022-08-03T12:41:55;4.57;;;1.30;;
8532;SDS011;4304;53.876;10.662;2022-08-03T12:44:30;3.05;;;1.30;;
8532;SDS011;4304;53.876;10.662;2022-08-03T12:46:57;2.03;;;1.48;;
8532;SDS011;4304;53.876;10.662;2022-08-03T12:49:23;1.77;;;1.30;;
8532;SDS011;4304;53.876;10.662;2022-08-03T12:54:15;2.75;;;1.20;;
8532;SDS011;4304;53.876;10.662;2022-08-03T12:57:01;5.53;;;1.20;;
8532;SDS011;4304;53.876;10.662;2022-08-03T12:59:32;3.40;;;1.50;;
8532;SDS011;4304;53.876;10.662;2022-08-03T13:02:19;2.55;;;1.20;;
8532;SDS011;4304;53.876;10.662;2022-08-03T13:04:56;2.20;;;1.20;;
8532;SDS011;4304;53.876;10.662;2022-08-03T13:07:52;4.47;;;1.35;;
8532;SDS011;4304;53.876;10.662;2022-08-03T13:10:33;1.85;;;1.17;;
8532;SDS011;4304;53.876;10.662;2022-08-03T13:12:59;5.97;;;1.25;;
8532;SDS011;4304;53.876;10.662;2022-08-03T13:15:42;6.78;;;1.20;;
8532;SDS011;4304;53.876;10.662;2022-08-03T13:18:41;3.00;;;1.50;;
8532;SDS011;4304;53.876;10.662;2022-08-03T13:21:16;3.20;;;1.33;;
8532;SDS011;4304;53.876;10.662;2022-08-03T13:23:56;4.85;;;1.52;;
8532;SDS011;4304;53.876;10.662;2022-08-03T13:26:35;2.03;;;1.40;;
8532;SDS011;4304;53.876;10.662;2022-08-03T13:29:15;6.40;;;1.33;;
8532;SDS011;4304;53.876;10.662;2022-08-03T13:31:47;3.67;;;1.42;;
8532;SDS011;4304;53.876;10.662;2022-08-03T13:34:22;4.45;;;2.03;;
8532;SDS011;4304;53.876;10.662;2022-08-03T13:36:57;2.70;;;1.25;;
8532;SDS011;4304;53.876;10.662;2022-08-03T13:39:32;5.90;;;1.50;;
8532;SDS011;4304;53.876;10.662;2022-08-03T13:41:58;3.55;;;1.50;;
8532;SDS011;4304;53.876;10.662;2022-08-03T13:44:26;1.83;;;1.10;;
8532;SDS011;4304;53.876;10.662;2022-08-03T13:46:54;3.30;;;1.42;;
8532;SDS011;4304;53.876;10.662;2022-08-03T13:49:25;1.98;;;1.40;;
8532;SDS011;4304;53.876;10.662;2022-08-03T13:51:58;2.75;;;1.38;;
8532;SDS011;4304;53.876;10.662;2022-08-03T13:54:26;4.25;;;2.28;;
8532;SDS011;4304;53.876;10.662;2022-08-03T13:56:53;1.75;;;1.50;;
8532;SDS011;4304;53.876;10.662;2022-08-03T13:59:19;1.83;;;1.40;;
8532;SDS011;4304;53.876;10.662;2022-08-03T14:01:46;4.63;;;1.50;;
8532;SDS011;4304;53.876;10.662;2022-08-03T14:04:13;4.05;;;1.58;;
8532;SDS011;4304;53.876;10.662;2022-08-03T14:06:39;2.35;;;1.35;;
8532;SDS011;4304;53.876;10.662;2022-08-03T14:09:05;2.47;;;1.30;;
8532;SDS011;4304;53.876;10.662;2022-08-03T14:11:32;3.35;;;1.40;;
8532;SDS011;4304;53.876;10.662;2022-08-03T14:13:58;17.45;;;8.25;;
8532;SDS011;4304;53.876;10.662;2022-08-03T14:16:23;4.07;;;2.35;;
8532;SDS011;4304;53.876;10.662;2022-08-03T14:18:50;2.25;;;1.40;;
8532;SDS011;4304;53.876;10.662;2022-08-03T14:21:15;4.20;;;1.20;;
8532;SDS011;4304;53.876;10.662;2022-08-03T14:23:41;3.42;;;1.10;;
8532;SDS011;4304;53.876;10.662;2022-08-03T14:26:07;3.20;;;1.52;;
8532;SDS011;4304;53.876;10.662;2022-08-03T14:28:34;3.65;;;1.63;;
8532;SDS011;4304;53.876;10.662;2022-08-03T14:31:00;3.10;;;1.23;;
8532;SDS011;4304;53.876;10.662;2022-08-03T14:33:26;3.78;;;1.30;;
8532;SDS011;4304;53.876;10.662;2022-08-03T14:35:55;3.00;;;1.20;;
8532;SDS011;4304;53.876;10.662;2022-08-03T14:38:20;3.33;;;1.13;;
8532;SDS011;4304;53.876;10.662;2022-08-03T14:40:46;4.50;;;1.50;;
8532;SDS011;4304;53.876;10.662;2022-08-03T14:43:12;2.03;;;1.45;;
8532;SDS011;4304;53.876;10.662;2022-08-03T14:45:38;3.15;;;1.42;;
8532;SDS011;4304;53.876;10.662;2022-08-03T14:48:05;1.77;;;1.33;;
8532;SDS011;4304;53.876;10.662;2022-08-03T14:50:30;2.03;;;1.40;;
8532;SDS011;4304;53.876;10.662;2022-08-03T14:52:56;3.97;;;1.73;;
8532;SDS011;4304;53.876;10.662;2022-08-03T14:55:21;2.45;;;1.50;;
8532;SDS011;4304;53.876;10.662;2022-08-03T14:57:47;2.25;;;1.10;;
8532;SDS011;4304;53.876;10.662;2022-08-03T15:00:14;3.72;;;1.33;;
8532;SDS011;4304;53.876;10.662;2022-08-03T15:02:39;1.98;;;1.10;;
8532;SDS011;4304;53.876;10.662;2022-08-03T15:05:05;2.60;;;1.38;;
8532;SDS011;4304;53.876;10.662;2022-08-03T15:07:31;6.53;;;1.80;;
8532;SDS011;4304;53.876;10.662;2022-08-03T15:09:56;2.88;;;1.20;;
8532;SDS011;4304;53.876;10.662;2022-08-03T15:12:21;5.65;;;1.30;;
8532;SDS011;4304;53.876;10.662;2022-08-03T15:14:47;1.27;;;1.17;;
8532;SDS011;4304;53.876;10.662;2022-08-03T15:17:12;3.40;;;1.30;;
8532;SDS011;4304;53.876;10.662;2022-08-03T15:19:38;3.10;;;1.17;;
8532;SDS011;4304;53.876;10.662;2022-08-03T15:22:04;2.85;;;1.30;;
8532;SDS011;4304;53.876;10.662;2022-08-03T15:24:29;1.52;;;1.20;;
8532;SDS011;4304;53.876;10.662;2022-08-03T15:26:55;2.38;;;1.30;;
8532;SDS011;4304;53.876;10.662;2022-08-03T15:29:20;2.38;;;1.50;;
8532;SDS011;4304;53.876;10.662;2022-08-03T15:31:45;2.58;;;1.40;;
8532;SDS011;4304;53.876;10.662;2022-08-03T15:34:11;3.80;;;1.30;;
8532;SDS011;4304;53.876;10.662;2022-08-03T15:36:36;3.15;;;1.40;;
8532;SDS011;4304;53.876;10.662;2022-08-03T15:39:02;3.75;;;1.45;;
8532;SDS011;4304;53.876;10.662;2022-08-03T15:41:28;5.72;;;1.50;;
8532;SDS011;4304;53.876;10.662;2022-08-03T15:43:54;2.15;;;1.30;;
8532;SDS011;4304;53.876;10.662;2022-08-03T15:46:19;2.30;;;1.00;;
8532;SDS011;4304;53.876;10.662;2022-08-03T15:48:44;3.83;;;1.40;;
8532;SDS011;4304;53.876;10.662;2022-08-03T15:51:10;3.50;;;1.38;;
8532;SDS011;4304;53.876;10.662;2022-08-03T15:53:35;1.58;;;1.30;;
8532;SDS011;4304;53.876;10.662;2022-08-03T15:56:02;2.72;;;1.27;;
8532;SDS011;4304;53.876;10.662;2022-08-03T15:58:28;3.33;;;1.58;;
8532;SDS011;4304;53.876;10.662;2022-08-03T16:00:57;3.13;;;1.40;;
8532;SDS011;4304;53.876;10.662;2022-08-03T16:03:23;3.22;;;1.27;;
8532;SDS011;4304;53.876;10.662;2022-08-03T16:05:50;4.15;;;1.33;;
8532;SDS011;4304;53.876;10.662;2022-08-03T16:08:15;2.42;;;1.33;;